sensor_id;sensor_type;location;lat;lon;timestamp;temperature;humidity
28010;DHT22;15334;49.494;8.410;2023-08-31T14:28:23;21.40;99.90
28010;DHT22;15334;49.494;8.410;2023-08-31T14:30:51;21.30;99.90
28010;DHT22;15334;49.494;8.410;2023-08-31T14:35:49;21.30;99.90
28010;DHT22;15334;49.494;8.410;2023-08-31T14:38:20;21.10;99.90
28010;DHT22;15334;49.494;8.410;2023-08-31T14:40:49;21.10;99.90
28010;DHT22;15334;49.494;8.410;2023-08-31T14:45:49;20.70;99.90
28010;DHT22;15334;49.494;8.410;2023-08-31T14:48:17;20.80;99.90
28010;DHT22;15334;49.494;8.410;2023-08-31T14:50:45;21.10;99.90
28010;DHT22;15334;49.494;8.410;2023-08-31T14:53:13;20.40;99.90
28010;DHT22;15334;49.494;8.410;2023-08-31T14:55:41;20.40;99.90
28010;DHT22;15334;49.494;8.410;2023-08-31T14:58:15;20.70;99.90
28010;DHT22;15334;49.494;8.410;2023-08-31T15:00:43;20.30;99.90
28010;DHT22;15334;49.494;8.410;2023-08-31T15:03:12;20.50;99.90
28010;DHT22;15334;49.494;8.410;2023-08-31T15:05:41;20.40;99.90
28010;DHT22;15334;49.494;8.410;2023-08-31T15:08:09;20.30;99.90
28010;DHT22;15334;49.494;8.410;2023-08-31T15:10:38;20.10;99.90
28010;DHT22;15334;49.494;8.410;2023-08-31T15:13:07;20.10;99.90
28010;DHT22;15334;49.494;8.410;2023-08-31T15:15:35;20.20;99.90
28010;DHT22;15334;49.494;8.410;2023-08-31T15:18:04;20.40;99.90
28010;DHT22;15334;49.494;8.410;2023-08-31T15:20:36;20.50;99.90
28010;DHT22;15334;49.494;8.410;2023-08-31T15:23:04;20.60;99.90
28010;DHT22;15334;49.494;8.410;2023-08-31T15:25:35;20.70;99.90
28010;DHT22;15334;49.494;8.410;2023-08-31T15:28:03;20.50;99.90
28010;DHT22;15334;49.494;8.410;2023-08-31T15:30:33;20.50;99.90
28010;DHT22;15334;49.494;8.410;2023-08-31T15:33:02;20.40;99.90
28010;DHT22;15334;49.494;8.410;2023-08-31T15:35:30;20.30;99.90
28010;DHT22;15334;49.494;8.410;2023-08-31T15:38:00;20.30;99.90
28010;DHT22;15334;49.494;8.410;2023-08-31T15:40:29;20.20;99.90
28010;DHT22;15334;49.494;8.410;2023-08-31T15:43:14;20.00;99.90
28010;DHT22;15334;49.494;8.410;2023-08-31T15:46:01;19.90;99.90
28010;DHT22;15334;49.494;8.410;2023-08-31T15:48:48;19.90;99.90
28010;DHT22;15334;49.494;8.410;2023-08-31T15:51:33;19.90;99.90
28010;DHT22;15334;49.494;8.410;2023-08-31T15:54:03;19.90;99.90
28010;DHT22;15334;49.494;8.410;2023-08-31T15:56:32;19.80;99.90
28010;DHT22;15334;49.494;8.410;2023-08-31T15:59:03;19.80;99.90
28010;DHT22;15334;49.494;8.410;2023-08-31T16:01:31;19.70;99.90
28010;DHT22;15334;49.494;8.410;2023-08-31T16:03:59;19.70;99.90
28010;DHT22;15334;49.494;8.410;2023-08-31T16:06:27;19.60;99.90
28010;DHT22;15334;49.494;8.410;2023-08-31T16:08:55;19.50;99.90
28010;DHT22;15334;49.494;8.410;2023-08-31T16:11:26;19.60;99.90
28010;DHT22;15334;49.494;8.410;2023-08-31T16:13:54;19.60;99.90
28010;DHT22;15334;49.494;8.410;2023-08-31T16:16:22;19.50;99.90
28010;DHT22;15334;49.494;8.410;2023-08-31T16:18:51;19.40;99.90
28010;DHT22;15334;49.494;8.410;2023-08-31T16:21:19;19.40;99.90
28010;DHT22;15334;49.494;8.410;2023-08-31T16:23:47;19.30;99.90
28010;DHT22;15334;49.494;8.410;2023-08-31T16:26:17;19.30;99.90
28010;DHT22;15334;49.494;8.410;2023-08-31T16:28:46;19.20;99.90
28010;DHT22;15334;49.494;8.410;2023-08-31T16:31:14;19.20;99.90
28010;DHT22;15334;49.494;8.410;2023-08-31T16:33:42;19.20;99.90
28010;DHT22;15334;49.494;8.410;2023-08-31T16:36:10;19.20;99.90
28010;DHT22;15334;49.494;8.410;2023-08-31T16:38:38;19.10;99.90
28010;DHT22;15334;49.494;8.410;2023-08-31T16:41:24;19.10;99.90
28010;DHT22;15334;49.494;8.410;2023-08-31T16:44:11;19.00;99.90
28010;DHT22;15334;49.494;8.410;2023-08-31T16:46:57;19.00;99.90
28010;DHT22;15334;49.494;8.410;2023-08-31T16:49:44;18.90;99.90
28010;DHT22;15334;49.494;8.410;2023-08-31T16:52:12;19.00;99.90
28010;DHT22;15334;49.494;8.410;2023-08-31T16:54:40;18.90;99.90
28010;DHT22;15334;49.494;8.410;2023-08-31T16:57:08;19.20;99.90
28010;DHT22;15334;49.494;8.410;2023-08-31T16:59:37;19.00;99.90
28010;DHT22;15334;49.494;8.410;2023-08-31T17:02:08;18.90;99.90
28010;DHT22;15334;49.494;8.410;2023-08-31T17:04:38;18.90;99.90
28010;DHT22;15334;49.494;8.410;2023-08-31T17:07:06;18.90;99.90
28010;DHT22;15334;49.494;8.410;2023-08-31T17:09:34;18.90;99.90
28010;DHT22;15334;49.494;8.410;2023-08-31T17:12:02;18.90;99.90
28010;DHT22;15334;49.494;8.410;2023-08-31T17:14:31;18.90;99.90
28010;DHT22;15334;49.494;8.410;2023-08-31T17:17:01;18.90;99.90
28010;DHT22;15334;49.494;8.410;2023-08-31T17:19:30;18.90;99.90
28010;DHT22;15334;49.494;8.410;2023-08-31T17:21:58;18.80;99.90
28010;DHT22;15334;49.494;8.410;2023-08-31T17:24:26;18.70;99.90
28010;DHT22;15334;49.494;8.410;2023-08-31T17:26:54;18.60;99.90
28010;DHT22;15334;49.494;8.410;2023-08-31T17:29:22;18.50;99.90
28010;DHT22;15334;49.494;8.410;2023-08-31T17:31:50;18.40;99.90
28010;DHT22;15334;49.494;8.410;2023-08-31T17:34:20;18.40;99.90
28010;DHT22;15334;49.494;8.410;2023-08-31T17:36:49;18.20;99.90
28010;DHT22;15334;49.494;8.410;2023-08-31T17:39:17;17.90;99.90
28010;DHT22;15334;49.494;8.410;2023-08-31T17:41:45;18.00;99.90
28010;DHT22;15334;49.494;8.410;2023-08-31T17:44:13;17.90;99.90
28010;DHT22;15334;49.494;8.410;2023-08-31T17:46:44;17.90;99.90
28010;DHT22;15334;49.494;8.410;2023-08-31T17:49:20;17.70;99.90
28010;DHT22;15334;49.494;8.410;2023-08-31T17:54:38;17.70;99.90
28010;DHT22;15334;49.494;8.410;2023-08-31T18:02:09;17.40;99.90
28010;DHT22;15334;49.494;8.410;2023-08-31T18:04:51;17.20;99.90
28010;DHT22;15334;49.494;8.410;2023-08-31T18:07:31;17.20;99.90
28010;DHT22;15334;49.494;8.410;2023-08-31T18:10:12;17.10;99.90
28010;DHT22;15334;49.494;8.410;2023-08-31T18:15:51;16.70;99.90
28010;DHT22;15334;49.494;8.410;2023-08-31T18:19:05;16.50;99.90
28010;DHT22;15334;49.494;8.410;2023-08-31T18:22:07;16.50;99.90
28010;DHT22;15334;49.494;8.410;2023-08-31T18:24:59;16.40;99.90
28010;DHT22;15334;49.494;8.410;2023-08-31T18:28:29;16.30;99.90
28010;DHT22;15334;49.494;8.410;2023-08-31T18:34:30;16.30;99.90
28010;DHT22;15334;49.494;8.410;2023-08-31T18:37:25;16.20;99.90
28010;DHT22;15334;49.494;8.410;2023-08-31T18:42:54;16.60;99.90
28010;DHT22;15334;49.494;8.410;2023-08-31T18:46:11;16.40;99.90
28010;DHT22;15334;49.494;8.410;2023-08-31T18:52:48;16.30;99.90
28010;DHT22;15334;49.494;8.410;2023-08-31T18:56:00;16.20;99.90
28010;DHT22;15334;49.494;8.410;2023-08-31T19:01:32;16.10;99.90
28010;DHT22;15334;49.494;8.410;2023-08-31T19:04:32;16.20;99.90
28010;DHT22;15334;49.494;8.410;2023-08-31T19:07:09;16.20;99.90
28010;DHT22;15334;49.494;8.410;2023-08-31T19:09:51;16.10;99.90
28010;DHT22;15334;49.494;8.410;2023-08-31T19:18:23;16.10;99.90
28010;DHT22;15334;49.494;8.410;2023-08-31T19:21:12;16.30;99.90
28010;DHT22;15334;49.494;8.410;2023-08-31T19:24:04;16.00;99.90
28010;DHT22;15334;49.494;8.410;2023-08-31T19:27:46;15.90;99.90
28010;DHT22;15334;49.494;8.410;2023-08-31T19:33:03;15.80;99.90
28010;DHT22;15334;49.494;8.410;2023-08-31T19:36:08;13.70;99.90
28010;DHT22;15334;49.494;8.410;2023-08-31T19:41:34;15.70;99.90
28010;DHT22;15334;49.494;8.410;2023-08-31T19:45:27;15.70;99.90
28010;DHT22;15334;49.494;8.410;2023-08-31T19:48:45;15.80;99.90
28010;DHT22;15334;49.494;8.410;2023-08-31T19:55:17;15.80;99.90
28010;DHT22;15334;49.494;8.410;2023-08-31T19:58:13;15.90;99.90
28010;DHT22;15334;49.494;8.410;2023-08-31T20:01:23;15.70;99.90
28010;DHT22;15334;49.494;8.410;2023-08-31T20:04:51;15.80;99.90
28010;DHT22;15334;49.494;8.410;2023-08-31T20:08:26;15.90;99.90
28010;DHT22;15334;49.494;8.410;2023-08-31T20:14:19;15.80;99.90
28010;DHT22;15334;49.494;8.410;2023-08-31T20:17:09;15.80;99.90
28010;DHT22;15334;49.494;8.410;2023-08-31T20:20:18;15.80;99.90
28010;DHT22;15334;49.494;8.410;2023-08-31T20:22:56;15.90;99.90
28010;DHT22;15334;49.494;8.410;2023-08-31T20:25:50;15.80;99.90
28010;DHT22;15334;49.494;8.410;2023-08-31T20:28:37;15.90;99.90
28010;DHT22;15334;49.494;8.410;2023-08-31T20:31:22;15.80;99.90
28010;DHT22;15334;49.494;8.410;2023-08-31T20:33:52;15.80;99.90
28010;DHT22;15334;49.494;8.410;2023-08-31T20:36:20;15.70;99.90
28010;DHT22;15334;49.494;8.410;2023-08-31T20:38:48;15.70;99.90
28010;DHT22;15334;49.494;8.410;2023-08-31T20:41:16;15.60;99.90
28010;DHT22;15334;49.494;8.410;2023-08-31T20:43:44;15.60;99.90
28010;DHT22;15334;49.494;8.410;2023-08-31T20:46:12;15.50;99.90
28010;DHT22;15334;49.494;8.410;2023-08-31T20:48:40;15.50;99.90
28010;DHT22;15334;49.494;8.410;2023-08-31T20:51:09;15.50;99.90
28010;DHT22;15334;49.494;8.410;2023-08-31T20:53:38;15.60;99.90
28010;DHT22;15334;49.494;8.410;2023-08-31T20:56:07;15.60;99.90
28010;DHT22;15334;49.494;8.410;2023-08-31T20:58:36;15.60;99.90
28010;DHT22;15334;49.494;8.410;2023-08-31T21:01:05;15.50;99.90
28010;DHT22;15334;49.494;8.410;2023-08-31T21:03:36;15.50;99.90
28010;DHT22;15334;49.494;8.410;2023-08-31T21:06:04;15.40;99.90
28010;DHT22;15334;49.494;8.410;2023-08-31T21:08:34;15.40;99.90
28010;DHT22;15334;49.494;8.410;2023-08-31T21:11:03;15.40;99.90
28010;DHT22;15334;49.494;8.410;2023-08-31T21:13:31;15.30;99.90
28010;DHT22;15334;49.494;8.410;2023-08-31T21:16:04;15.40;99.90
28010;DHT22;15334;49.494;8.410;2023-08-31T21:18:32;15.40;99.90
28010;DHT22;15334;49.494;8.410;2023-08-31T21:21:03;15.40;99.90
28010;DHT22;15334;49.494;8.410;2023-08-31T21:23:33;15.40;99.90
28010;DHT22;15334;49.494;8.410;2023-08-31T21:26:02;15.50;99.90
28010;DHT22;15334;49.494;8.410;2023-08-31T21:28:30;15.50;99.90
28010;DHT22;15334;49.494;8.410;2023-08-31T21:30:58;15.40;99.90
28010;DHT22;15334;49.494;8.410;2023-08-31T21:33:29;15.50;99.90
28010;DHT22;15334;49.494;8.410;2023-08-31T21:35:59;15.50;99.90
28010;DHT22;15334;49.494;8.410;2023-08-31T21:38:27;15.50;99.90
28010;DHT22;15334;49.494;8.410;2023-08-31T21:40:59;15.50;99.90
28010;DHT22;15334;49.494;8.410;2023-08-31T21:43:31;15.50;99.90
28010;DHT22;15334;49.494;8.410;2023-08-31T21:46:00;15.50;99.90
28010;DHT22;15334;49.494;8.410;2023-08-31T21:48:29;15.40;99.90
28010;DHT22;15334;49.494;8.410;2023-08-31T21:50:57;15.30;99.90
28010;DHT22;15334;49.494;8.410;2023-08-31T21:53:25;15.30;99.90
28010;DHT22;15334;49.494;8.410;2023-08-31T21:55:53;15.30;99.90
28010;DHT22;15334;49.494;8.410;2023-08-31T21:58:23;15.30;99.90
28010;DHT22;15334;49.494;8.410;2023-08-31T22:00:51;15.20;99.90
28010;DHT22;15334;49.494;8.410;2023-08-31T22:03:19;15.30;99.90
28010;DHT22;15334;49.494;8.410;2023-08-31T22:05:47;15.30;99.90
28010;DHT22;15334;49.494;8.410;2023-08-31T22:08:15;15.30;99.90
28010;DHT22;15334;49.494;8.410;2023-08-31T22:10:44;15.30;99.90
28010;DHT22;15334;49.494;8.410;2023-08-31T22:13:12;15.30;99.90
28010;DHT22;15334;49.494;8.410;2023-08-31T22:15:41;15.30;99.90
28010;DHT22;15334;49.494;8.410;2023-08-31T22:18:12;15.30;99.90
28010;DHT22;15334;49.494;8.410;2023-08-31T22:20:41;15.30;99.90
28010;DHT22;15334;49.494;8.410;2023-08-31T22:23:09;15.30;99.90
28010;DHT22;15334;49.494;8.410;2023-08-31T22:25:38;15.30;99.90
28010;DHT22;15334;49.494;8.410;2023-08-31T22:28:06;15.40;99.90
28010;DHT22;15334;49.494;8.410;2023-08-31T22:30:34;15.40;99.90
28010;DHT22;15334;49.494;8.410;2023-08-31T22:33:06;15.40;99.90
28010;DHT22;15334;49.494;8.410;2023-08-31T22:35:34;15.40;99.90
28010;DHT22;15334;49.494;8.410;2023-08-31T22:38:01;15.50;99.90
28010;DHT22;15334;49.494;8.410;2023-08-31T22:40:30;15.50;99.90
28010;DHT22;15334;49.494;8.410;2023-08-31T22:42:58;15.40;99.90
28010;DHT22;15334;49.494;8.410;2023-08-31T22:45:26;15.50;99.90
28010;DHT22;15334;49.494;8.410;2023-08-31T22:47:54;15.50;99.90
28010;DHT22;15334;49.494;8.410;2023-08-31T22:50:24;15.50;99.90
28010;DHT22;15334;49.494;8.410;2023-08-31T22:52:52;15.40;99.90
28010;DHT22;15334;49.494;8.410;2023-08-31T22:55:20;15.40;99.90
28010;DHT22;15334;49.494;8.410;2023-08-31T22:57:48;15.40;99.90
28010;DHT22;15334;49.494;8.410;2023-08-31T23:00:16;15.40;99.90
28010;DHT22;15334;49.494;8.410;2023-08-31T23:02:44;15.40;99.90
28010;DHT22;15334;49.494;8.410;2023-08-31T23:05:12;15.40;99.90
28010;DHT22;15334;49.494;8.410;2023-08-31T23:07:41;15.40;99.90
28010;DHT22;15334;49.494;8.410;2023-08-31T23:10:09;15.40;99.90
28010;DHT22;15334;49.494;8.410;2023-08-31T23:12:52;15.40;99.90
28010;DHT22;15334;49.494;8.410;2023-08-31T23:15:20;15.40;99.90
28010;DHT22;15334;49.494;8.410;2023-08-31T23:17:48;15.40;99.90
28010;DHT22;15334;49.494;8.410;2023-08-31T23:20:16;15.40;99.90
28010;DHT22;15334;49.494;8.410;2023-08-31T23:22:46;15.40;99.90
28010;DHT22;15334;49.494;8.410;2023-08-31T23:25:14;15.40;99.90
28010;DHT22;15334;49.494;8.410;2023-08-31T23:27:42;15.40;99.90
28010;DHT22;15334;49.494;8.410;2023-08-31T23:30:10;15.40;99.90
28010;DHT22;15334;49.494;8.410;2023-08-31T23:32:38;15.40;99.90
28010;DHT22;15334;49.494;8.410;2023-08-31T23:35:08;15.40;99.90
28010;DHT22;15334;49.494;8.410;2023-08-31T23:37:37;15.30;99.90
28010;DHT22;15334;49.494;8.410;2023-08-31T23:40:07;15.30;99.90
28010;DHT22;15334;49.494;8.410;2023-08-31T23:42:37;15.30;99.90
28010;DHT22;15334;49.494;8.410;2023-08-31T23:45:09;15.20;99.90
28010;DHT22;15334;49.494;8.410;2023-08-31T23:47:37;15.30;99.90
28010;DHT22;15334;49.494;8.410;2023-08-31T23:50:06;15.30;99.90
28010;DHT22;15334;49.494;8.410;2023-08-31T23:52:34;15.30;99.90
28010;DHT22;15334;49.494;8.410;2023-08-31T23:55:02;15.30;99.90
28010;DHT22;15334;49.494;8.410;2023-08-31T23:57:31;15.30;99.90
28010;DHT22;15334;49.494;8.410;2023-08-31T23:59:59;15.30;99.90
